sensor_id;sensor_type;location;lat;lon;timestamp;P1;durP1;ratioP1;P2;durP2;ratioP2
65667;SDS011;52369;52.542;13.232;2023-04-01T00:00:22;5.63;;;2.95;;
65667;SDS011;52369;52.542;13.232;2023-04-01T00:02:48;5.15;;;2.80;;
65667;SDS011;52369;52.542;13.232;2023-04-01T00:05:15;4.72;;;2.47;;
65667;SDS011;52369;52.542;13.232;2023-04-01T00:07:44;5.53;;;2.70;;
65667;SDS011;52369;52.542;13.232;2023-04-01T00:10:11;10.45;;;4.45;;
65667;SDS011;52369;52.542;13.232;2023-04-01T00:12:38;4.65;;;2.72;;
65667;SDS011;52369;52.542;13.232;2023-04-01T00:15:05;7.30;;;3.42;;
65667;SDS011;52369;52.542;13.232;2023-04-01T00:17:31;4.82;;;2.63;;
65667;SDS011;52369;52.542;13.232;2023-04-01T00:19:58;5.63;;;2.55;;
65667;SDS011;52369;52.542;13.232;2023-04-01T00:22:24;4.03;;;2.45;;
65667;SDS011;52369;52.542;13.232;2023-04-01T00:24:51;5.35;;;2.95;;
65667;SDS011;52369;52.542;13.232;2023-04-01T00:27:17;5.97;;;2.58;;
65667;SDS011;52369;52.542;13.232;2023-04-01T00:29:44;5.50;;;2.53;;
65667;SDS011;52369;52.542;13.232;2023-04-01T00:32:10;5.28;;;2.88;;
65667;SDS011;52369;52.542;13.232;2023-04-01T00:34:36;6.30;;;2.50;;
65667;SDS011;52369;52.542;13.232;2023-04-01T00:37:02;3.67;;;2.33;;
65667;SDS011;52369;52.542;13.232;2023-04-01T00:39:29;4.13;;;2.42;;
65667;SDS011;52369;52.542;13.232;2023-04-01T00:41:56;3.60;;;2.40;;
65667;SDS011;52369;52.542;13.232;2023-04-01T00:46:48;4.22;;;2.60;;
65667;SDS011;52369;52.542;13.232;2023-04-01T00:49:15;2.78;;;2.03;;
65667;SDS011;52369;52.542;13.232;2023-04-01T00:51:42;3.75;;;2.10;;
65667;SDS011;52369;52.542;13.232;2023-04-01T00:54:08;4.90;;;2.33;;
65667;SDS011;52369;52.542;13.232;2023-04-01T00:56:36;4.30;;;1.85;;
65667;SDS011;52369;52.542;13.232;2023-04-01T00:59:05;3.97;;;2.35;;
65667;SDS011;52369;52.542;13.232;2023-04-01T01:01:33;5.32;;;2.30;;
65667;SDS011;52369;52.542;13.232;2023-04-01T01:04:00;5.45;;;2.30;;
65667;SDS011;52369;52.542;13.232;2023-04-01T01:11:29;5.93;;;2.60;;
65667;SDS011;52369;52.542;13.232;2023-04-01T01:14:10;5.30;;;2.70;;
65667;SDS011;52369;52.542;13.232;2023-04-01T01:16:46;6.25;;;3.00;;
65667;SDS011;52369;52.542;13.232;2023-04-01T01:34:41;4.55;;;2.33;;
65667;SDS011;52369;52.542;13.232;2023-04-01T01:37:15;5.50;;;2.42;;
65667;SDS011;52369;52.542;13.232;2023-04-01T01:39:43;5.05;;;3.10;;
65667;SDS011;52369;52.542;13.232;2023-04-01T01:42:11;7.85;;;3.20;;
65667;SDS011;52369;52.542;13.232;2023-04-01T01:44:39;7.75;;;3.08;;
65667;SDS011;52369;52.542;13.232;2023-04-01T01:47:06;4.60;;;2.50;;
65667;SDS011;52369;52.542;13.232;2023-04-01T01:49:32;3.20;;;2.03;;
65667;SDS011;52369;52.542;13.232;2023-04-01T01:51:59;5.80;;;2.80;;
65667;SDS011;52369;52.542;13.232;2023-04-01T01:54:26;2.95;;;1.98;;
65667;SDS011;52369;52.542;13.232;2023-04-01T01:56:54;5.93;;;2.95;;
65667;SDS011;52369;52.542;13.232;2023-04-01T01:59:21;2.22;;;1.80;;
65667;SDS011;52369;52.542;13.232;2023-04-01T02:01:49;4.35;;;2.30;;
65667;SDS011;52369;52.542;13.232;2023-04-01T02:04:16;6.57;;;2.58;;
65667;SDS011;52369;52.542;13.232;2023-04-01T02:06:47;4.45;;;1.80;;
65667;SDS011;52369;52.542;13.232;2023-04-01T02:09:17;3.97;;;2.30;;
65667;SDS011;52369;52.542;13.232;2023-04-01T02:11:48;4.90;;;2.25;;
65667;SDS011;52369;52.542;13.232;2023-04-01T02:14:26;2.60;;;2.10;;
65667;SDS011;52369;52.542;13.232;2023-04-01T02:19:20;3.92;;;2.10;;
65667;SDS011;52369;52.542;13.232;2023-04-01T02:21:51;4.82;;;2.03;;
65667;SDS011;52369;52.542;13.232;2023-04-01T02:24:18;6.13;;;2.10;;
65667;SDS011;52369;52.542;13.232;2023-04-01T02:26:50;4.78;;;2.00;;
65667;SDS011;52369;52.542;13.232;2023-04-01T02:29:18;4.75;;;2.00;;
65667;SDS011;52369;52.542;13.232;2023-04-01T02:31:45;8.15;;;2.20;;
65667;SDS011;52369;52.542;13.232;2023-04-01T02:34:11;5.13;;;2.13;;
65667;SDS011;52369;52.542;13.232;2023-04-01T02:36:37;6.55;;;2.05;;
65667;SDS011;52369;52.542;13.232;2023-04-01T02:39:04;3.88;;;2.00;;
65667;SDS011;52369;52.542;13.232;2023-04-01T02:41:30;2.97;;;1.67;;
65667;SDS011;52369;52.542;13.232;2023-04-01T02:43:57;5.25;;;2.10;;
65667;SDS011;52369;52.542;13.232;2023-04-01T02:46:24;5.55;;;2.10;;
65667;SDS011;52369;52.542;13.232;2023-04-01T02:48:50;5.65;;;2.53;;
65667;SDS011;52369;52.542;13.232;2023-04-01T02:51:16;3.95;;;2.63;;
65667;SDS011;52369;52.542;13.232;2023-04-01T02:53:42;3.10;;;2.13;;
65667;SDS011;52369;52.542;13.232;2023-04-01T02:56:08;5.07;;;2.50;;
65667;SDS011;52369;52.542;13.232;2023-04-01T02:58:35;9.25;;;3.58;;
65667;SDS011;52369;52.542;13.232;2023-04-01T03:01:01;10.65;;;4.30;;
65667;SDS011;52369;52.542;13.232;2023-04-01T03:03:27;6.28;;;2.67;;
65667;SDS011;52369;52.542;13.232;2023-04-01T03:05:53;6.35;;;3.13;;
65667;SDS011;52369;52.542;13.232;2023-04-01T03:08:21;11.88;;;4.22;;
65667;SDS011;52369;52.542;13.232;2023-04-01T03:10:47;6.30;;;2.80;;
65667;SDS011;52369;52.542;13.232;2023-04-01T03:13:13;5.53;;;2.20;;
65667;SDS011;52369;52.542;13.232;2023-04-01T03:15:39;4.05;;;2.53;;
65667;SDS011;52369;52.542;13.232;2023-04-01T03:18:05;5.25;;;2.78;;
65667;SDS011;52369;52.542;13.232;2023-04-01T03:20:31;6.88;;;2.60;;
65667;SDS011;52369;52.542;13.232;2023-04-01T03:22:57;4.43;;;2.30;;
65667;SDS011;52369;52.542;13.232;2023-04-01T03:25:23;6.82;;;2.30;;
65667;SDS011;52369;52.542;13.232;2023-04-01T03:27:49;12.40;;;4.43;;
65667;SDS011;52369;52.542;13.232;2023-04-01T03:30:15;7.57;;;2.78;;
65667;SDS011;52369;52.542;13.232;2023-04-01T03:32:42;5.50;;;2.67;;
65667;SDS011;52369;52.542;13.232;2023-04-01T03:35:08;9.60;;;4.20;;
65667;SDS011;52369;52.542;13.232;2023-04-01T03:37:35;22.45;;;7.57;;
65667;SDS011;52369;52.542;13.232;2023-04-01T03:40:01;6.07;;;2.38;;
65667;SDS011;52369;52.542;13.232;2023-04-01T03:42:27;3.65;;;2.10;;
65667;SDS011;52369;52.542;13.232;2023-04-01T03:44:53;4.97;;;2.28;;
65667;SDS011;52369;52.542;13.232;2023-04-01T03:47:19;7.05;;;2.92;;
65667;SDS011;52369;52.542;13.232;2023-04-01T03:49:45;5.60;;;2.63;;
65667;SDS011;52369;52.542;13.232;2023-04-01T03:52:11;4.07;;;2.50;;
65667;SDS011;52369;52.542;13.232;2023-04-01T03:54:37;8.85;;;3.88;;
65667;SDS011;52369;52.542;13.232;2023-04-01T03:57:04;7.43;;;3.53;;
65667;SDS011;52369;52.542;13.232;2023-04-01T03:59:30;13.02;;;5.28;;
65667;SDS011;52369;52.542;13.232;2023-04-01T04:01:56;6.15;;;2.85;;
65667;SDS011;52369;52.542;13.232;2023-04-01T04:04:22;23.33;;;9.55;;
65667;SDS011;52369;52.542;13.232;2023-04-01T04:06:48;10.55;;;4.53;;
65667;SDS011;52369;52.542;13.232;2023-04-01T04:09:16;7.93;;;3.13;;
65667;SDS011;52369;52.542;13.232;2023-04-01T04:11:42;6.32;;;2.90;;
65667;SDS011;52369;52.542;13.232;2023-04-01T04:14:08;8.65;;;3.53;;
65667;SDS011;52369;52.542;13.232;2023-04-01T04:16:35;7.10;;;2.28;;
65667;SDS011;52369;52.542;13.232;2023-04-01T04:19:04;5.10;;;2.15;;
65667;SDS011;52369;52.542;13.232;2023-04-01T04:21:31;6.28;;;2.70;;
65667;SDS011;52369;52.542;13.232;2023-04-01T04:23:58;6.88;;;2.40;;
65667;SDS011;52369;52.542;13.232;2023-04-01T04:26:25;3.28;;;1.95;;
65667;SDS011;52369;52.542;13.232;2023-04-01T04:28:51;7.13;;;2.55;;
65667;SDS011;52369;52.542;13.232;2023-04-01T04:31:20;6.15;;;2.10;;
65667;SDS011;52369;52.542;13.232;2023-04-01T04:33:47;5.57;;;2.53;;
65667;SDS011;52369;52.542;13.232;2023-04-01T04:36:13;5.35;;;2.55;;
65667;SDS011;52369;52.542;13.232;2023-04-01T04:38:39;5.90;;;2.67;;
65667;SDS011;52369;52.542;13.232;2023-04-01T04:41:12;5.82;;;2.40;;
65667;SDS011;52369;52.542;13.232;2023-04-01T04:43:38;7.32;;;3.00;;
65667;SDS011;52369;52.542;13.232;2023-04-01T04:46:06;5.45;;;2.85;;
65667;SDS011;52369;52.542;13.232;2023-04-01T04:48:32;9.40;;;3.28;;
65667;SDS011;52369;52.542;13.232;2023-04-01T04:50:58;4.85;;;2.70;;
65667;SDS011;52369;52.542;13.232;2023-04-01T04:53:24;11.93;;;4.05;;
65667;SDS011;52369;52.542;13.232;2023-04-01T04:55:51;7.22;;;3.30;;
65667;SDS011;52369;52.542;13.232;2023-04-01T04:58:17;11.40;;;3.85;;
65667;SDS011;52369;52.542;13.232;2023-04-01T05:00:43;7.22;;;3.28;;
65667;SDS011;52369;52.542;13.232;2023-04-01T05:03:10;7.28;;;3.05;;
65667;SDS011;52369;52.542;13.232;2023-04-01T05:05:36;9.15;;;3.50;;
65667;SDS011;52369;52.542;13.232;2023-04-01T05:08:03;6.78;;;2.50;;
65667;SDS011;52369;52.542;13.232;2023-04-01T05:10:29;9.93;;;3.33;;
65667;SDS011;52369;52.542;13.232;2023-04-01T05:12:56;6.25;;;3.58;;
65667;SDS011;52369;52.542;13.232;2023-04-01T05:15:22;5.68;;;2.58;;
65667;SDS011;52369;52.542;13.232;2023-04-01T05:17:48;6.30;;;3.00;;
65667;SDS011;52369;52.542;13.232;2023-04-01T05:20:14;9.98;;;3.10;;
65667;SDS011;52369;52.542;13.232;2023-04-01T05:22:41;7.13;;;3.15;;
65667;SDS011;52369;52.542;13.232;2023-04-01T05:25:07;7.43;;;3.30;;
65667;SDS011;52369;52.542;13.232;2023-04-01T05:27:33;8.68;;;4.03;;
65667;SDS011;52369;52.542;13.232;2023-04-01T05:29:59;8.80;;;3.53;;
65667;SDS011;52369;52.542;13.232;2023-04-01T05:32:25;7.97;;;3.63;;
65667;SDS011;52369;52.542;13.232;2023-04-01T05:34:51;7.75;;;3.80;;
65667;SDS011;52369;52.542;13.232;2023-04-01T05:37:17;7.57;;;3.85;;
65667;SDS011;52369;52.542;13.232;2023-04-01T05:39:43;9.05;;;4.15;;
65667;SDS011;52369;52.542;13.232;2023-04-01T05:42:09;6.93;;;3.42;;
65667;SDS011;52369;52.542;13.232;2023-04-01T05:44:36;10.40;;;3.60;;
65667;SDS011;52369;52.542;13.232;2023-04-01T05:47:02;9.45;;;3.70;;
65667;SDS011;52369;52.542;13.232;2023-04-01T05:49:28;8.05;;;3.88;;
65667;SDS011;52369;52.542;13.232;2023-04-01T05:51:55;9.77;;;3.78;;
65667;SDS011;52369;52.542;13.232;2023-04-01T05:54:21;7.63;;;3.20;;
65667;SDS011;52369;52.542;13.232;2023-04-01T05:56:47;5.97;;;3.38;;
65667;SDS011;52369;52.542;13.232;2023-04-01T05:59:13;7.00;;;3.47;;
65667;SDS011;52369;52.542;13.232;2023-04-01T06:01:39;8.45;;;3.20;;
65667;SDS011;52369;52.542;13.232;2023-04-01T06:04:05;7.50;;;3.35;;
65667;SDS011;52369;52.542;13.232;2023-04-01T06:06:32;7.57;;;3.03;;
65667;SDS011;52369;52.542;13.232;2023-04-01T06:09:01;6.57;;;3.25;;
65667;SDS011;52369;52.542;13.232;2023-04-01T06:11:35;7.43;;;3.22;;
65667;SDS011;52369;52.542;13.232;2023-04-01T06:16:39;7.80;;;3.33;;
65667;SDS011;52369;52.542;13.232;2023-04-01T06:22:01;6.55;;;3.47;;
65667;SDS011;52369;52.542;13.232;2023-04-01T06:24:36;6.55;;;3.10;;
65667;SDS011;52369;52.542;13.232;2023-04-01T06:29:54;9.45;;;3.30;;
65667;SDS011;52369;52.542;13.232;2023-04-01T06:32:31;5.15;;;3.05;;
65667;SDS011;52369;52.542;13.232;2023-04-01T06:43:02;7.10;;;2.88;;
65667;SDS011;52369;52.542;13.232;2023-04-01T06:48:17;6.88;;;3.00;;
65667;SDS011;52369;52.542;13.232;2023-04-01T06:51:00;5.18;;;2.65;;
65667;SDS011;52369;52.542;13.232;2023-04-01T06:53:32;6.60;;;3.35;;
65667;SDS011;52369;52.542;13.232;2023-04-01T06:56:04;6.70;;;3.08;;
65667;SDS011;52369;52.542;13.232;2023-04-01T06:58:40;9.75;;;3.50;;
65667;SDS011;52369;52.542;13.232;2023-04-01T07:01:08;7.78;;;3.80;;
65667;SDS011;52369;52.542;13.232;2023-04-01T07:03:40;4.78;;;3.00;;
65667;SDS011;52369;52.542;13.232;2023-04-01T07:06:20;6.72;;;3.40;;
65667;SDS011;52369;52.542;13.232;2023-04-01T07:08:49;6.95;;;3.17;;
65667;SDS011;52369;52.542;13.232;2023-04-01T07:11:24;6.38;;;3.47;;
65667;SDS011;52369;52.542;13.232;2023-04-01T07:14:33;6.05;;;3.08;;
65667;SDS011;52369;52.542;13.232;2023-04-01T07:16:43;7.13;;;3.60;;
65667;SDS011;52369;52.542;13.232;2023-04-01T07:22:10;6.35;;;2.60;;
65667;SDS011;52369;52.542;13.232;2023-04-01T07:24:41;7.07;;;2.85;;
65667;SDS011;52369;52.542;13.232;2023-04-01T07:27:10;4.35;;;2.40;;
65667;SDS011;52369;52.542;13.232;2023-04-01T07:29:37;7.60;;;2.85;;
65667;SDS011;52369;52.542;13.232;2023-04-01T07:32:14;6.20;;;2.65;;
65667;SDS011;52369;52.542;13.232;2023-04-01T07:35:16;7.07;;;2.80;;
65667;SDS011;52369;52.542;13.232;2023-04-01T07:37:54;6.82;;;3.00;;
65667;SDS011;52369;52.542;13.232;2023-04-01T07:40:41;4.13;;;2.92;;
65667;SDS011;52369;52.542;13.232;2023-04-01T07:48:23;8.88;;;3.90;;
65667;SDS011;52369;52.542;13.232;2023-04-01T07:51:13;8.88;;;3.45;;
65667;SDS011;52369;52.542;13.232;2023-04-01T08:01:43;5.00;;;3.17;;
65667;SDS011;52369;52.542;13.232;2023-04-01T08:04:09;6.87;;;3.43;;
65667;SDS011;52369;52.542;13.232;2023-04-01T08:09:31;8.27;;;3.97;;
65667;SDS011;52369;52.542;13.232;2023-04-01T08:12:19;6.05;;;3.40;;
65667;SDS011;52369;52.542;13.232;2023-04-01T08:15:06;8.05;;;3.00;;
65667;SDS011;52369;52.542;13.232;2023-04-01T08:17:56;5.22;;;3.03;;
65667;SDS011;52369;52.542;13.232;2023-04-01T08:22:57;4.88;;;2.75;;
65667;SDS011;52369;52.542;13.232;2023-04-01T08:25:27;6.75;;;2.95;;
65667;SDS011;52369;52.542;13.232;2023-04-01T08:28:03;5.20;;;2.92;;
65667;SDS011;52369;52.542;13.232;2023-04-01T08:30:38;3.45;;;2.50;;
65667;SDS011;52369;52.542;13.232;2023-04-01T08:35:39;3.85;;;2.22;;
65667;SDS011;52369;52.542;13.232;2023-04-01T08:38:10;4.13;;;1.75;;
65667;SDS011;52369;52.542;13.232;2023-04-01T08:46:01;2.70;;;1.65;;
65667;SDS011;52369;52.542;13.232;2023-04-01T08:48:35;1.88;;;1.27;;
65667;SDS011;52369;52.542;13.232;2023-04-01T08:53:53;4.53;;;2.60;;
65667;SDS011;52369;52.542;13.232;2023-04-01T08:56:34;3.80;;;2.05;;
65667;SDS011;52369;52.542;13.232;2023-04-01T08:59:27;3.83;;;2.13;;
65667;SDS011;52369;52.542;13.232;2023-04-01T09:04:25;5.15;;;2.53;;
65667;SDS011;52369;52.542;13.232;2023-04-01T09:30:53;6.65;;;3.80;;
65667;SDS011;52369;52.542;13.232;2023-04-01T09:38:34;9.38;;;4.80;;
65667;SDS011;52369;52.542;13.232;2023-04-01T09:46:09;9.32;;;5.43;;
65667;SDS011;52369;52.542;13.232;2023-04-01T10:14:03;10.40;;;5.28;;
65667;SDS011;52369;52.542;13.232;2023-04-01T10:46:25;10.45;;;5.75;;
65667;SDS011;52369;52.542;13.232;2023-04-01T10:51:32;10.90;;;6.38;;
65667;SDS011;52369;52.542;13.232;2023-04-01T10:54:20;10.55;;;6.18;;
65667;SDS011;52369;52.542;13.232;2023-04-01T10:59:52;11.23;;;6.43;;
65667;SDS011;52369;52.542;13.232;2023-04-01T11:16:08;8.85;;;4.57;;
65667;SDS011;52369;52.542;13.232;2023-04-01T11:24:16;9.13;;;4.78;;
65667;SDS011;52369;52.542;13.232;2023-04-01T11:32:06;7.47;;;4.60;;
65667;SDS011;52369;52.542;13.232;2023-04-01T11:42:33;8.32;;;5.00;;
65667;SDS011;52369;52.542;13.232;2023-04-01T11:45:07;8.07;;;4.68;;
65667;SDS011;52369;52.542;13.232;2023-04-01T12:01:38;7.80;;;5.07;;
65667;SDS011;52369;52.542;13.232;2023-04-01T12:03:51;8.70;;;4.90;;
65667;SDS011;52369;52.542;13.232;2023-04-01T12:06:39;8.43;;;5.25;;
65667;SDS011;52369;52.542;13.232;2023-04-01T12:09:12;11.23;;;6.70;;
65667;SDS011;52369;52.542;13.232;2023-04-01T12:19:26;16.55;;;9.20;;
65667;SDS011;52369;52.542;13.232;2023-04-01T12:22:03;12.15;;;7.05;;
65667;SDS011;52369;52.542;13.232;2023-04-01T12:30:34;11.20;;;6.70;;
65667;SDS011;52369;52.542;13.232;2023-04-01T12:35:45;12.00;;;7.25;;
65667;SDS011;52369;52.542;13.232;2023-04-01T12:38:18;12.10;;;7.25;;
65667;SDS011;52369;52.542;13.232;2023-04-01T12:54:24;13.10;;;7.28;;
65667;SDS011;52369;52.542;13.232;2023-04-01T12:59:32;13.35;;;7.50;;
65667;SDS011;52369;52.542;13.232;2023-04-01T13:02:51;14.88;;;8.38;;
65667;SDS011;52369;52.542;13.232;2023-04-01T13:10:23;14.25;;;7.95;;
65667;SDS011;52369;52.542;13.232;2023-04-01T13:15:28;13.10;;;7.30;;
65667;SDS011;52369;52.542;13.232;2023-04-01T13:18:00;14.23;;;7.82;;
65667;SDS011;52369;52.542;13.232;2023-04-01T13:28:16;10.90;;;6.60;;
65667;SDS011;52369;52.542;13.232;2023-04-01T13:30:51;11.65;;;6.88;;
65667;SDS011;52369;52.542;13.232;2023-04-01T13:33:27;10.93;;;6.40;;
65667;SDS011;52369;52.542;13.232;2023-04-01T13:43:42;11.32;;;6.97;;
65667;SDS011;52369;52.542;13.232;2023-04-01T13:49:16;18.75;;;8.65;;
65667;SDS011;52369;52.542;13.232;2023-04-01T14:06:13;8.32;;;4.10;;
65667;SDS011;52369;52.542;13.232;2023-04-01T14:22:38;11.18;;;5.85;;
65667;SDS011;52369;52.542;13.232;2023-04-01T14:24:36;6.53;;;3.83;;
65667;SDS011;52369;52.542;13.232;2023-04-01T14:37:25;8.05;;;4.15;;
65667;SDS011;52369;52.542;13.232;2023-04-01T14:40:19;7.68;;;4.05;;
65667;SDS011;52369;52.542;13.232;2023-04-01T14:47:51;9.13;;;5.18;;
65667;SDS011;52369;52.542;13.232;2023-04-01T14:50:27;11.02;;;4.90;;
65667;SDS011;52369;52.542;13.232;2023-04-01T14:52:57;9.80;;;4.70;;
65667;SDS011;52369;52.542;13.232;2023-04-01T15:00:41;12.98;;;6.15;;
65667;SDS011;52369;52.542;13.232;2023-04-01T15:05:47;11.95;;;5.93;;
65667;SDS011;52369;52.542;13.232;2023-04-01T15:08:17;15.77;;;7.30;;
65667;SDS011;52369;52.542;13.232;2023-04-01T15:11:05;10.23;;;4.90;;
65667;SDS011;52369;52.542;13.232;2023-04-01T15:16:08;7.20;;;4.18;;
65667;SDS011;52369;52.542;13.232;2023-04-01T15:21:55;13.07;;;7.20;;
65667;SDS011;52369;52.542;13.232;2023-04-01T15:31:55;7.68;;;4.43;;
65667;SDS011;52369;52.542;13.232;2023-04-01T15:34:43;8.52;;;4.68;;
65667;SDS011;52369;52.542;13.232;2023-04-01T15:44:46;19.73;;;8.38;;
65667;SDS011;52369;52.542;13.232;2023-04-01T15:55:44;7.82;;;4.30;;
65667;SDS011;52369;52.542;13.232;2023-04-01T16:00:30;8.45;;;4.70;;
65667;SDS011;52369;52.542;13.232;2023-04-01T16:12:57;12.25;;;6.20;;
65667;SDS011;52369;52.542;13.232;2023-04-01T16:15:29;7.07;;;4.70;;
65667;SDS011;52369;52.542;13.232;2023-04-01T16:18:13;7.70;;;4.28;;
65667;SDS011;52369;52.542;13.232;2023-04-01T16:20:53;13.03;;;5.53;;
65667;SDS011;52369;52.542;13.232;2023-04-01T16:23:26;10.50;;;5.47;;
65667;SDS011;52369;52.542;13.232;2023-04-01T16:26:05;11.27;;;5.38;;
65667;SDS011;52369;52.542;13.232;2023-04-01T16:41:33;6.72;;;3.97;;
65667;SDS011;52369;52.542;13.232;2023-04-01T16:44:21;10.73;;;5.38;;
65667;SDS011;52369;52.542;13.232;2023-04-01T16:46:52;7.88;;;4.45;;
65667;SDS011;52369;52.542;13.232;2023-04-01T16:57:02;7.22;;;4.07;;
65667;SDS011;52369;52.542;13.232;2023-04-01T16:59:35;7.10;;;4.38;;
65667;SDS011;52369;52.542;13.232;2023-04-01T17:04:33;7.72;;;4.35;;
65667;SDS011;52369;52.542;13.232;2023-04-01T17:12:25;7.93;;;4.18;;
65667;SDS011;52369;52.542;13.232;2023-04-01T17:22:38;5.85;;;3.58;;
65667;SDS011;52369;52.542;13.232;2023-04-01T17:38:25;6.32;;;3.40;;
65667;SDS011;52369;52.542;13.232;2023-04-01T17:43:36;12.05;;;5.93;;
65667;SDS011;52369;52.542;13.232;2023-04-01T17:51:24;20.67;;;7.90;;
65667;SDS011;52369;52.542;13.232;2023-04-01T18:12:04;9.90;;;4.57;;
65667;SDS011;52369;52.542;13.232;2023-04-01T18:24:45;6.13;;;3.63;;
65667;SDS011;52369;52.542;13.232;2023-04-01T18:27:16;9.85;;;3.97;;
65667;SDS011;52369;52.542;13.232;2023-04-01T18:29:51;8.75;;;4.15;;
65667;SDS011;52369;52.542;13.232;2023-04-01T18:32:34;7.97;;;4.50;;
65667;SDS011;52369;52.542;13.232;2023-04-01T18:37:52;9.65;;;5.05;;
65667;SDS011;52369;52.542;13.232;2023-04-01T18:40:34;6.97;;;4.15;;
65667;SDS011;52369;52.542;13.232;2023-04-01T18:45:51;7.95;;;4.35;;
65667;SDS011;52369;52.542;13.232;2023-04-01T18:53:49;7.20;;;4.18;;
65667;SDS011;52369;52.542;13.232;2023-04-01T19:01:51;7.90;;;4.22;;
65667;SDS011;52369;52.542;13.232;2023-04-01T19:04:30;7.60;;;4.07;;
65667;SDS011;52369;52.542;13.232;2023-04-01T19:06:59;11.77;;;5.45;;
65667;SDS011;52369;52.542;13.232;2023-04-01T19:09:46;7.60;;;4.80;;
65667;SDS011;52369;52.542;13.232;2023-04-01T19:17:38;13.55;;;6.38;;
65667;SDS011;52369;52.542;13.232;2023-04-01T19:25:31;7.18;;;4.70;;
65667;SDS011;52369;52.542;13.232;2023-04-01T19:33:18;12.20;;;5.70;;
65667;SDS011;52369;52.542;13.232;2023-04-01T19:38:28;10.50;;;5.32;;
65667;SDS011;52369;52.542;13.232;2023-04-01T19:43:47;11.70;;;5.43;;
65667;SDS011;52369;52.542;13.232;2023-04-01T19:46:18;11.93;;;6.70;;
65667;SDS011;52369;52.542;13.232;2023-04-01T19:48:52;13.65;;;6.60;;
65667;SDS011;52369;52.542;13.232;2023-04-01T19:51:35;13.65;;;6.88;;
65667;SDS011;52369;52.542;13.232;2023-04-01T19:56:48;19.02;;;8.43;;
65667;SDS011;52369;52.542;13.232;2023-04-01T20:04:43;16.58;;;6.72;;
65667;SDS011;52369;52.542;13.232;2023-04-01T20:07:15;23.27;;;10.48;;
65667;SDS011;52369;52.542;13.232;2023-04-01T20:14:47;14.23;;;7.88;;
65667;SDS011;52369;52.542;13.232;2023-04-01T20:19:44;12.20;;;6.90;;
65667;SDS011;52369;52.542;13.232;2023-04-01T20:22:20;14.40;;;6.97;;
65667;SDS011;52369;52.542;13.232;2023-04-01T20:24:50;12.27;;;7.30;;
65667;SDS011;52369;52.542;13.232;2023-04-01T20:27:21;15.95;;;8.15;;
65667;SDS011;52369;52.542;13.232;2023-04-01T20:29:56;13.38;;;7.30;;
65667;SDS011;52369;52.542;13.232;2023-04-01T20:35:00;12.80;;;6.60;;
65667;SDS011;52369;52.542;13.232;2023-04-01T20:37:51;14.50;;;7.60;;
65667;SDS011;52369;52.542;13.232;2023-04-01T20:53:12;13.60;;;7.45;;
65667;SDS011;52369;52.542;13.232;2023-04-01T20:55:53;17.70;;;9.52;;
65667;SDS011;52369;52.542;13.232;2023-04-01T21:09:07;13.88;;;6.80;;
65667;SDS011;52369;52.542;13.232;2023-04-01T21:11:46;21.35;;;8.10;;
65667;SDS011;52369;52.542;13.232;2023-04-01T21:14:29;13.65;;;6.50;;
65667;SDS011;52369;52.542;13.232;2023-04-01T21:28:18;11.10;;;6.03;;
65667;SDS011;52369;52.542;13.232;2023-04-01T21:33:35;12.35;;;6.85;;
65667;SDS011;52369;52.542;13.232;2023-04-01T22:06:56;11.73;;;6.25;;
65667;SDS011;52369;52.542;13.232;2023-04-01T22:12:24;13.30;;;6.47;;
65667;SDS011;52369;52.542;13.232;2023-04-01T22:17:40;10.98;;;5.93;;
65667;SDS011;52369;52.542;13.232;2023-04-01T22:26:23;12.73;;;6.93;;
65667;SDS011;52369;52.542;13.232;2023-04-01T22:29:03;11.60;;;6.47;;
65667;SDS011;52369;52.542;13.232;2023-04-01T22:36:41;12.80;;;6.63;;
65667;SDS011;52369;52.542;13.232;2023-04-01T22:39:18;11.93;;;6.45;;
65667;SDS011;52369;52.542;13.232;2023-04-01T22:47:16;11.23;;;6.38;;
65667;SDS011;52369;52.542;13.232;2023-04-01T22:49:47;9.77;;;6.03;;
65667;SDS011;52369;52.542;13.232;2023-04-01T22:52:19;10.52;;;6.20;;
65667;SDS011;52369;52.542;13.232;2023-04-01T22:54:47;9.55;;;6.15;;
65667;SDS011;52369;52.542;13.232;2023-04-01T22:57:37;11.63;;;6.43;;
65667;SDS011;52369;52.542;13.232;2023-04-01T23:02:36;9.90;;;5.78;;
65667;SDS011;52369;52.542;13.232;2023-04-01T23:05:03;8.80;;;5.30;;
65667;SDS011;52369;52.542;13.232;2023-04-01T23:10:02;8.10;;;5.20;;
65667;SDS011;52369;52.542;13.232;2023-04-01T23:12:31;8.85;;;5.28;;
65667;SDS011;52369;52.542;13.232;2023-04-01T23:14:59;9.40;;;5.22;;
65667;SDS011;52369;52.542;13.232;2023-04-01T23:22:35;7.43;;;4.30;;
65667;SDS011;52369;52.542;13.232;2023-04-01T23:27:33;11.25;;;5.22;;
65667;SDS011;52369;52.542;13.232;2023-04-01T23:30:02;9.75;;;5.22;;
65667;SDS011;52369;52.542;13.232;2023-04-01T23:32:28;8.18;;;4.72;;
65667;SDS011;52369;52.542;13.232;2023-04-01T23:34:56;9.15;;;4.50;;
65667;SDS011;52369;52.542;13.232;2023-04-01T23:37:23;9.00;;;4.60;;
65667;SDS011;52369;52.542;13.232;2023-04-01T23:39:50;7.47;;;4.68;;
65667;SDS011;52369;52.542;13.232;2023-04-01T23:42:22;15.23;;;5.28;;
65667;SDS011;52369;52.542;13.232;2023-04-01T23:44:50;8.98;;;5.05;;
65667;SDS011;52369;52.542;13.232;2023-04-01T23:47:21;7.97;;;4.15;;
65667;SDS011;52369;52.542;13.232;2023-04-01T23:49:48;6.90;;;4.30;;
65667;SDS011;52369;52.542;13.232;2023-04-01T23:52:19;8.68;;;4.72;;
65667;SDS011;52369;52.542;13.232;2023-04-01T23:54:51;8.77;;;4.97;;
65667;SDS011;52369;52.542;13.232;2023-04-01T23:57:19;9.43;;;4.82;;
